sensor_id;sensor_type;location;lat;lon;timestamp;P1;durP1;ratioP1;P2;durP2;ratioP2
52320;SDS011;38261;54.090;13.382;2023-09-08T00:00:18;18.93;;;13.43;;
52320;SDS011;38261;54.090;13.382;2023-09-08T00:01:40;20.70;;;13.70;;
52320;SDS011;38261;54.090;13.382;2023-09-08T00:03:03;22.00;;;14.50;;
52320;SDS011;38261;54.090;13.382;2023-09-08T00:04:25;19.07;;;13.73;;
52320;SDS011;38261;54.090;13.382;2023-09-08T00:05:47;19.53;;;14.70;;
52320;SDS011;38261;54.090;13.382;2023-09-08T00:07:09;18.20;;;13.27;;
52320;SDS011;38261;54.090;13.382;2023-09-08T00:08:32;21.00;;;15.07;;
52320;SDS011;38261;54.090;13.382;2023-09-08T00:09:55;18.70;;;14.57;;
52320;SDS011;38261;54.090;13.382;2023-09-08T00:11:17;17.37;;;13.47;;
52320;SDS011;38261;54.090;13.382;2023-09-08T00:12:39;16.23;;;13.13;;
52320;SDS011;38261;54.090;13.382;2023-09-08T00:14:03;18.97;;;14.73;;
52320;SDS011;38261;54.090;13.382;2023-09-08T00:15:25;18.13;;;14.80;;
52320;SDS011;38261;54.090;13.382;2023-09-08T00:16:47;21.27;;;16.10;;
52320;SDS011;38261;54.090;13.382;2023-09-08T00:18:10;20.33;;;13.87;;
52320;SDS011;38261;54.090;13.382;2023-09-08T00:19:33;18.20;;;12.00;;
52320;SDS011;38261;54.090;13.382;2023-09-08T00:20:55;17.63;;;12.80;;
52320;SDS011;38261;54.090;13.382;2023-09-08T00:22:18;18.30;;;13.30;;
52320;SDS011;38261;54.090;13.382;2023-09-08T00:23:40;19.87;;;14.47;;
52320;SDS011;38261;54.090;13.382;2023-09-08T00:25:02;16.43;;;12.90;;
52320;SDS011;38261;54.090;13.382;2023-09-08T00:26:25;18.37;;;14.23;;
52320;SDS011;38261;54.090;13.382;2023-09-08T00:27:47;19.20;;;14.27;;
52320;SDS011;38261;54.090;13.382;2023-09-08T00:29:09;21.30;;;15.10;;
52320;SDS011;38261;54.090;13.382;2023-09-08T00:30:31;19.13;;;14.20;;
52320;SDS011;38261;54.090;13.382;2023-09-08T00:31:53;19.40;;;13.70;;
52320;SDS011;38261;54.090;13.382;2023-09-08T00:33:16;18.87;;;13.80;;
52320;SDS011;38261;54.090;13.382;2023-09-08T00:34:40;19.33;;;14.50;;
52320;SDS011;38261;54.090;13.382;2023-09-08T00:36:02;23.03;;;15.10;;
52320;SDS011;38261;54.090;13.382;2023-09-08T00:37:25;18.07;;;13.73;;
52320;SDS011;38261;54.090;13.382;2023-09-08T00:38:47;19.00;;;14.67;;
52320;SDS011;38261;54.090;13.382;2023-09-08T00:40:09;18.30;;;13.33;;
52320;SDS011;38261;54.090;13.382;2023-09-08T00:41:31;18.63;;;13.10;;
52320;SDS011;38261;54.090;13.382;2023-09-08T00:42:55;16.50;;;12.93;;
52320;SDS011;38261;54.090;13.382;2023-09-08T00:44:17;20.87;;;13.60;;
52320;SDS011;38261;54.090;13.382;2023-09-08T00:45:40;19.70;;;14.33;;
52320;SDS011;38261;54.090;13.382;2023-09-08T00:47:04;21.07;;;14.17;;
52320;SDS011;38261;54.090;13.382;2023-09-08T00:48:26;18.37;;;14.00;;
52320;SDS011;38261;54.090;13.382;2023-09-08T00:49:49;19.03;;;12.90;;
52320;SDS011;38261;54.090;13.382;2023-09-08T00:52:27;19.03;;;13.67;;
52320;SDS011;38261;54.090;13.382;2023-09-08T00:53:53;17.37;;;13.67;;
52320;SDS011;38261;54.090;13.382;2023-09-08T00:55:16;25.10;;;14.30;;
52320;SDS011;38261;54.090;13.382;2023-09-08T00:56:38;19.50;;;14.43;;
52320;SDS011;38261;54.090;13.382;2023-09-08T00:58:01;20.03;;;13.57;;
52320;SDS011;38261;54.090;13.382;2023-09-08T00:59:24;19.00;;;13.67;;
52320;SDS011;38261;54.090;13.382;2023-09-08T01:00:46;17.63;;;13.40;;
52320;SDS011;38261;54.090;13.382;2023-09-08T01:02:08;19.60;;;14.50;;
52320;SDS011;38261;54.090;13.382;2023-09-08T01:03:31;19.57;;;14.57;;
52320;SDS011;38261;54.090;13.382;2023-09-08T01:04:53;18.20;;;13.30;;
52320;SDS011;38261;54.090;13.382;2023-09-08T01:06:16;14.53;;;11.70;;
52320;SDS011;38261;54.090;13.382;2023-09-08T01:07:38;17.23;;;12.33;;
52320;SDS011;38261;54.090;13.382;2023-09-08T01:09:00;19.20;;;14.43;;
52320;SDS011;38261;54.090;13.382;2023-09-08T01:10:23;16.27;;;12.80;;
52320;SDS011;38261;54.090;13.382;2023-09-08T01:11:45;17.90;;;11.97;;
52320;SDS011;38261;54.090;13.382;2023-09-08T01:13:08;18.27;;;12.47;;
52320;SDS011;38261;54.090;13.382;2023-09-08T01:14:31;17.80;;;13.63;;
52320;SDS011;38261;54.090;13.382;2023-09-08T01:15:53;20.00;;;15.03;;
52320;SDS011;38261;54.090;13.382;2023-09-08T01:17:15;19.47;;;13.70;;
52320;SDS011;38261;54.090;13.382;2023-09-08T01:18:37;18.97;;;13.20;;
52320;SDS011;38261;54.090;13.382;2023-09-08T01:20:13;16.63;;;12.60;;
52320;SDS011;38261;54.090;13.382;2023-09-08T01:25:40;18.03;;;13.13;;
52320;SDS011;38261;54.090;13.382;2023-09-08T01:26:44;19.40;;;12.70;;
52320;SDS011;38261;54.090;13.382;2023-09-08T01:28:07;19.03;;;13.60;;
52320;SDS011;38261;54.090;13.382;2023-09-08T01:29:31;17.20;;;12.80;;
52320;SDS011;38261;54.090;13.382;2023-09-08T01:30:54;19.97;;;12.70;;
52320;SDS011;38261;54.090;13.382;2023-09-08T01:32:17;18.80;;;13.70;;
52320;SDS011;38261;54.090;13.382;2023-09-08T01:33:40;18.40;;;14.27;;
52320;SDS011;38261;54.090;13.382;2023-09-08T01:35:03;19.67;;;14.40;;
52320;SDS011;38261;54.090;13.382;2023-09-08T01:36:26;17.07;;;13.57;;
52320;SDS011;38261;54.090;13.382;2023-09-08T01:37:48;21.50;;;14.57;;
52320;SDS011;38261;54.090;13.382;2023-09-08T01:39:11;16.30;;;12.60;;
52320;SDS011;38261;54.090;13.382;2023-09-08T01:40:33;18.80;;;13.30;;
52320;SDS011;38261;54.090;13.382;2023-09-08T01:41:55;17.33;;;13.40;;
52320;SDS011;38261;54.090;13.382;2023-09-08T01:43:17;20.07;;;15.10;;
52320;SDS011;38261;54.090;13.382;2023-09-08T01:44:39;24.00;;;14.60;;
52320;SDS011;38261;54.090;13.382;2023-09-08T01:46:01;20.30;;;14.60;;
52320;SDS011;38261;54.090;13.382;2023-09-08T01:47:23;24.50;;;14.70;;
52320;SDS011;38261;54.090;13.382;2023-09-08T01:48:47;18.77;;;14.30;;
52320;SDS011;38261;54.090;13.382;2023-09-08T01:50:09;23.43;;;14.50;;
52320;SDS011;38261;54.090;13.382;2023-09-08T01:51:31;25.13;;;15.77;;
52320;SDS011;38261;54.090;13.382;2023-09-08T01:52:53;17.10;;;13.33;;
52320;SDS011;38261;54.090;13.382;2023-09-08T01:54:16;19.90;;;14.80;;
52320;SDS011;38261;54.090;13.382;2023-09-08T01:55:38;17.40;;;13.13;;
52320;SDS011;38261;54.090;13.382;2023-09-08T01:57:00;19.37;;;14.17;;
52320;SDS011;38261;54.090;13.382;2023-09-08T01:58:22;19.73;;;14.57;;
52320;SDS011;38261;54.090;13.382;2023-09-08T01:59:44;19.87;;;14.20;;
52320;SDS011;38261;54.090;13.382;2023-09-08T02:01:06;18.13;;;13.70;;
52320;SDS011;38261;54.090;13.382;2023-09-08T02:02:28;17.60;;;12.87;;
52320;SDS011;38261;54.090;13.382;2023-09-08T02:03:51;17.07;;;13.07;;
52320;SDS011;38261;54.090;13.382;2023-09-08T02:05:13;17.87;;;13.70;;
52320;SDS011;38261;54.090;13.382;2023-09-08T02:06:36;20.20;;;14.10;;
52320;SDS011;38261;54.090;13.382;2023-09-08T02:07:58;27.30;;;14.57;;
52320;SDS011;38261;54.090;13.382;2023-09-08T02:09:20;18.40;;;13.60;;
52320;SDS011;38261;54.090;13.382;2023-09-08T02:10:42;18.67;;;12.90;;
52320;SDS011;38261;54.090;13.382;2023-09-08T02:12:04;17.80;;;13.97;;
52320;SDS011;38261;54.090;13.382;2023-09-08T02:13:27;16.03;;;12.43;;
52320;SDS011;38261;54.090;13.382;2023-09-08T02:14:50;19.83;;;13.90;;
52320;SDS011;38261;54.090;13.382;2023-09-08T02:16:13;21.67;;;14.00;;
52320;SDS011;38261;54.090;13.382;2023-09-08T02:17:36;20.87;;;15.30;;
52320;SDS011;38261;54.090;13.382;2023-09-08T02:18:58;20.53;;;15.20;;
52320;SDS011;38261;54.090;13.382;2023-09-08T02:20:20;18.03;;;13.30;;
52320;SDS011;38261;54.090;13.382;2023-09-08T02:21:42;20.80;;;14.80;;
52320;SDS011;38261;54.090;13.382;2023-09-08T02:23:05;19.33;;;14.07;;
52320;SDS011;38261;54.090;13.382;2023-09-08T02:24:28;22.93;;;14.57;;
52320;SDS011;38261;54.090;13.382;2023-09-08T02:25:50;21.27;;;13.07;;
52320;SDS011;38261;54.090;13.382;2023-09-08T02:27:12;18.13;;;13.50;;
52320;SDS011;38261;54.090;13.382;2023-09-08T02:28:34;16.33;;;12.10;;
52320;SDS011;38261;54.090;13.382;2023-09-08T02:29:57;16.70;;;13.23;;
52320;SDS011;38261;54.090;13.382;2023-09-08T02:31:19;17.63;;;12.53;;
52320;SDS011;38261;54.090;13.382;2023-09-08T02:32:41;15.93;;;12.57;;
52320;SDS011;38261;54.090;13.382;2023-09-08T02:34:05;15.10;;;12.50;;
52320;SDS011;38261;54.090;13.382;2023-09-08T02:35:27;16.43;;;12.70;;
52320;SDS011;38261;54.090;13.382;2023-09-08T02:36:49;15.67;;;12.30;;
52320;SDS011;38261;54.090;13.382;2023-09-08T02:38:12;15.40;;;12.10;;
52320;SDS011;38261;54.090;13.382;2023-09-08T02:39:34;16.13;;;12.80;;
52320;SDS011;38261;54.090;13.382;2023-09-08T02:40:57;15.23;;;12.40;;
52320;SDS011;38261;54.090;13.382;2023-09-08T02:42:19;19.73;;;13.17;;
52320;SDS011;38261;54.090;13.382;2023-09-08T02:43:41;15.40;;;12.83;;
52320;SDS011;38261;54.090;13.382;2023-09-08T02:45:03;20.23;;;14.63;;
52320;SDS011;38261;54.090;13.382;2023-09-08T02:46:26;20.80;;;14.67;;
52320;SDS011;38261;54.090;13.382;2023-09-08T02:47:48;20.43;;;13.87;;
52320;SDS011;38261;54.090;13.382;2023-09-08T02:49:10;18.20;;;14.17;;
52320;SDS011;38261;54.090;13.382;2023-09-08T02:50:32;19.97;;;14.33;;
52320;SDS011;38261;54.090;13.382;2023-09-08T02:51:54;19.00;;;13.40;;
52320;SDS011;38261;54.090;13.382;2023-09-08T02:53:17;18.17;;;13.60;;
52320;SDS011;38261;54.090;13.382;2023-09-08T02:54:39;22.90;;;14.97;;
52320;SDS011;38261;54.090;13.382;2023-09-08T02:56:01;21.37;;;15.30;;
52320;SDS011;38261;54.090;13.382;2023-09-08T02:57:25;20.83;;;13.77;;
52320;SDS011;38261;54.090;13.382;2023-09-08T02:58:48;17.07;;;13.60;;
52320;SDS011;38261;54.090;13.382;2023-09-08T03:00:10;17.30;;;13.53;;
52320;SDS011;38261;54.090;13.382;2023-09-08T03:01:33;20.23;;;13.40;;
52320;SDS011;38261;54.090;13.382;2023-09-08T03:02:55;18.17;;;13.30;;
52320;SDS011;38261;54.090;13.382;2023-09-08T03:04:17;17.50;;;13.30;;
52320;SDS011;38261;54.090;13.382;2023-09-08T03:05:39;19.70;;;13.43;;
52320;SDS011;38261;54.090;13.382;2023-09-08T03:07:01;17.90;;;12.77;;
52320;SDS011;38261;54.090;13.382;2023-09-08T03:08:23;17.40;;;12.90;;
52320;SDS011;38261;54.090;13.382;2023-09-08T03:09:46;16.57;;;12.40;;
52320;SDS011;38261;54.090;13.382;2023-09-08T03:11:08;16.70;;;12.10;;
52320;SDS011;38261;54.090;13.382;2023-09-08T03:12:30;17.63;;;13.83;;
52320;SDS011;38261;54.090;13.382;2023-09-08T03:13:52;19.77;;;14.30;;
52320;SDS011;38261;54.090;13.382;2023-09-08T03:15:14;17.93;;;13.73;;
52320;SDS011;38261;54.090;13.382;2023-09-08T03:16:37;14.60;;;12.33;;
52320;SDS011;38261;54.090;13.382;2023-09-08T03:17:59;17.27;;;13.87;;
52320;SDS011;38261;54.090;13.382;2023-09-08T03:19:21;16.50;;;12.60;;
52320;SDS011;38261;54.090;13.382;2023-09-08T03:20:43;19.70;;;13.93;;
52320;SDS011;38261;54.090;13.382;2023-09-08T03:22:12;17.30;;;13.87;;
52320;SDS011;38261;54.090;13.382;2023-09-08T03:23:38;16.90;;;13.67;;
52320;SDS011;38261;54.090;13.382;2023-09-08T03:25:01;19.50;;;15.10;;
52320;SDS011;38261;54.090;13.382;2023-09-08T03:26:23;18.20;;;14.93;;
52320;SDS011;38261;54.090;13.382;2023-09-08T03:27:45;23.93;;;16.00;;
52320;SDS011;38261;54.090;13.382;2023-09-08T03:29:07;21.43;;;16.03;;
52320;SDS011;38261;54.090;13.382;2023-09-08T03:30:29;20.03;;;16.33;;
52320;SDS011;38261;54.090;13.382;2023-09-08T03:31:51;21.87;;;15.87;;
52320;SDS011;38261;54.090;13.382;2023-09-08T03:33:13;18.27;;;14.73;;
52320;SDS011;38261;54.090;13.382;2023-09-08T03:34:36;22.00;;;16.00;;
52320;SDS011;38261;54.090;13.382;2023-09-08T03:36:01;21.30;;;14.60;;
52320;SDS011;38261;54.090;13.382;2023-09-08T03:37:23;22.27;;;14.63;;
52320;SDS011;38261;54.090;13.382;2023-09-08T03:38:47;19.07;;;15.03;;
52320;SDS011;38261;54.090;13.382;2023-09-08T03:40:10;21.60;;;14.57;;
52320;SDS011;38261;54.090;13.382;2023-09-08T03:41:32;24.83;;;15.53;;
52320;SDS011;38261;54.090;13.382;2023-09-08T03:42:54;18.73;;;14.97;;
52320;SDS011;38261;54.090;13.382;2023-09-08T03:44:16;20.63;;;15.97;;
52320;SDS011;38261;54.090;13.382;2023-09-08T03:45:38;18.80;;;15.30;;
52320;SDS011;38261;54.090;13.382;2023-09-08T03:47:01;22.70;;;15.93;;
52320;SDS011;38261;54.090;13.382;2023-09-08T03:48:24;20.00;;;15.97;;
52320;SDS011;38261;54.090;13.382;2023-09-08T03:49:47;20.27;;;15.57;;
52320;SDS011;38261;54.090;13.382;2023-09-08T03:51:09;21.70;;;15.13;;
52320;SDS011;38261;54.090;13.382;2023-09-08T03:52:31;23.30;;;16.30;;
52320;SDS011;38261;54.090;13.382;2023-09-08T03:53:54;21.97;;;16.33;;
52320;SDS011;38261;54.090;13.382;2023-09-08T03:55:16;26.03;;;17.77;;
52320;SDS011;38261;54.090;13.382;2023-09-08T03:56:38;24.43;;;17.43;;
52320;SDS011;38261;54.090;13.382;2023-09-08T03:58:00;27.70;;;17.70;;
52320;SDS011;38261;54.090;13.382;2023-09-08T03:59:22;26.87;;;17.43;;
52320;SDS011;38261;54.090;13.382;2023-09-08T04:00:44;25.23;;;17.57;;
52320;SDS011;38261;54.090;13.382;2023-09-08T04:02:07;24.30;;;17.90;;
52320;SDS011;38261;54.090;13.382;2023-09-08T04:03:29;22.67;;;17.80;;
52320;SDS011;38261;54.090;13.382;2023-09-08T04:04:52;26.10;;;18.10;;
52320;SDS011;38261;54.090;13.382;2023-09-08T04:06:14;24.53;;;17.30;;
52320;SDS011;38261;54.090;13.382;2023-09-08T04:07:36;27.73;;;19.73;;
52320;SDS011;38261;54.090;13.382;2023-09-08T04:08:58;24.80;;;18.50;;
52320;SDS011;38261;54.090;13.382;2023-09-08T04:10:21;22.60;;;17.30;;
52320;SDS011;38261;54.090;13.382;2023-09-08T04:11:43;29.40;;;19.33;;
52320;SDS011;38261;54.090;13.382;2023-09-08T04:13:05;26.07;;;19.77;;
52320;SDS011;38261;54.090;13.382;2023-09-08T04:14:27;24.57;;;18.93;;
52320;SDS011;38261;54.090;13.382;2023-09-08T04:15:50;25.10;;;18.20;;
52320;SDS011;38261;54.090;13.382;2023-09-08T04:17:12;27.37;;;18.70;;
52320;SDS011;38261;54.090;13.382;2023-09-08T04:18:34;26.07;;;19.23;;
52320;SDS011;38261;54.090;13.382;2023-09-08T04:19:56;28.80;;;20.83;;
52320;SDS011;38261;54.090;13.382;2023-09-08T04:21:18;26.60;;;18.93;;
52320;SDS011;38261;54.090;13.382;2023-09-08T04:22:40;26.60;;;18.50;;
52320;SDS011;38261;54.090;13.382;2023-09-08T04:24:03;27.97;;;19.03;;
52320;SDS011;38261;54.090;13.382;2023-09-08T04:25:26;28.57;;;19.23;;
52320;SDS011;38261;54.090;13.382;2023-09-08T04:26:48;27.80;;;16.83;;
52320;SDS011;38261;54.090;13.382;2023-09-08T04:28:10;25.23;;;18.80;;
52320;SDS011;38261;54.090;13.382;2023-09-08T04:29:33;28.13;;;19.57;;
52320;SDS011;38261;54.090;13.382;2023-09-08T04:30:55;27.40;;;18.67;;
52320;SDS011;38261;54.090;13.382;2023-09-08T04:32:17;29.97;;;19.83;;
52320;SDS011;38261;54.090;13.382;2023-09-08T04:33:39;27.80;;;17.40;;
52320;SDS011;38261;54.090;13.382;2023-09-08T04:35:01;25.63;;;19.27;;
52320;SDS011;38261;54.090;13.382;2023-09-08T04:36:24;26.73;;;18.37;;
52320;SDS011;38261;54.090;13.382;2023-09-08T04:37:46;27.40;;;18.83;;
52320;SDS011;38261;54.090;13.382;2023-09-08T04:39:08;24.60;;;17.70;;
52320;SDS011;38261;54.090;13.382;2023-09-08T04:40:32;25.87;;;19.00;;
52320;SDS011;38261;54.090;13.382;2023-09-08T04:41:55;25.13;;;19.20;;
52320;SDS011;38261;54.090;13.382;2023-09-08T04:43:17;25.20;;;18.20;;
52320;SDS011;38261;54.090;13.382;2023-09-08T04:44:39;35.17;;;19.20;;
52320;SDS011;38261;54.090;13.382;2023-09-08T04:46:01;28.90;;;19.90;;
52320;SDS011;38261;54.090;13.382;2023-09-08T04:47:25;37.20;;;21.90;;
52320;SDS011;38261;54.090;13.382;2023-09-08T04:48:47;29.43;;;20.63;;
52320;SDS011;38261;54.090;13.382;2023-09-08T04:50:09;35.10;;;21.40;;
52320;SDS011;38261;54.090;13.382;2023-09-08T04:51:31;29.83;;;22.40;;
52320;SDS011;38261;54.090;13.382;2023-09-08T04:52:53;26.90;;;20.70;;
52320;SDS011;38261;54.090;13.382;2023-09-08T04:54:16;25.37;;;19.60;;
52320;SDS011;38261;54.090;13.382;2023-09-08T04:55:38;21.93;;;18.17;;
52320;SDS011;38261;54.090;13.382;2023-09-08T04:57:00;24.73;;;18.33;;
52320;SDS011;38261;54.090;13.382;2023-09-08T04:58:42;23.20;;;17.90;;
52320;SDS011;38261;54.090;13.382;2023-09-08T05:00:04;19.10;;;15.30;;
52320;SDS011;38261;54.090;13.382;2023-09-08T05:01:27;18.13;;;14.40;;
52320;SDS011;38261;54.090;13.382;2023-09-08T05:02:51;21.83;;;14.10;;
52320;SDS011;38261;54.090;13.382;2023-09-08T05:04:14;19.97;;;14.90;;
52320;SDS011;38261;54.090;13.382;2023-09-08T05:05:36;18.03;;;13.77;;
52320;SDS011;38261;54.090;13.382;2023-09-08T05:06:58;23.90;;;13.27;;
52320;SDS011;38261;54.090;13.382;2023-09-08T05:08:20;17.40;;;13.50;;
52320;SDS011;38261;54.090;13.382;2023-09-08T05:09:42;18.07;;;12.70;;
52320;SDS011;38261;54.090;13.382;2023-09-08T05:11:04;20.23;;;12.97;;
52320;SDS011;38261;54.090;13.382;2023-09-08T05:12:27;18.47;;;12.90;;
52320;SDS011;38261;54.090;13.382;2023-09-08T05:13:49;17.67;;;12.73;;
52320;SDS011;38261;54.090;13.382;2023-09-08T05:15:11;16.93;;;12.93;;
52320;SDS011;38261;54.090;13.382;2023-09-08T05:16:37;18.23;;;12.33;;
52320;SDS011;38261;54.090;13.382;2023-09-08T05:18:07;18.40;;;13.23;;
52320;SDS011;38261;54.090;13.382;2023-09-08T05:19:29;15.40;;;12.40;;
52320;SDS011;38261;54.090;13.382;2023-09-08T05:20:52;15.63;;;12.43;;
52320;SDS011;38261;54.090;13.382;2023-09-08T05:22:14;15.00;;;11.97;;
52320;SDS011;38261;54.090;13.382;2023-09-08T05:23:36;21.30;;;13.20;;
52320;SDS011;38261;54.090;13.382;2023-09-08T05:24:58;18.07;;;12.90;;
52320;SDS011;38261;54.090;13.382;2023-09-08T05:26:21;15.23;;;11.70;;
52320;SDS011;38261;54.090;13.382;2023-09-08T05:27:43;19.90;;;12.30;;
52320;SDS011;38261;54.090;13.382;2023-09-08T05:29:07;18.50;;;12.17;;
52320;SDS011;38261;54.090;13.382;2023-09-08T05:30:29;16.43;;;12.97;;
52320;SDS011;38261;54.090;13.382;2023-09-08T05:31:52;16.60;;;11.67;;
52320;SDS011;38261;54.090;13.382;2023-09-08T05:33:14;16.57;;;11.87;;
52320;SDS011;38261;54.090;13.382;2023-09-08T05:34:36;16.47;;;12.10;;
52320;SDS011;38261;54.090;13.382;2023-09-08T05:35:58;13.63;;;11.77;;
52320;SDS011;38261;54.090;13.382;2023-09-08T05:37:20;16.53;;;11.63;;
52320;SDS011;38261;54.090;13.382;2023-09-08T05:38:43;17.20;;;11.87;;
52320;SDS011;38261;54.090;13.382;2023-09-08T05:40:05;17.23;;;12.30;;
52320;SDS011;38261;54.090;13.382;2023-09-08T05:41:28;17.60;;;12.00;;
52320;SDS011;38261;54.090;13.382;2023-09-08T05:42:50;17.60;;;11.97;;
52320;SDS011;38261;54.090;13.382;2023-09-08T05:44:12;17.77;;;13.03;;
52320;SDS011;38261;54.090;13.382;2023-09-08T05:45:35;17.30;;;12.10;;
52320;SDS011;38261;54.090;13.382;2023-09-08T05:46:57;17.60;;;12.57;;
52320;SDS011;38261;54.090;13.382;2023-09-08T05:48:19;15.87;;;11.67;;
52320;SDS011;38261;54.090;13.382;2023-09-08T05:49:41;18.53;;;12.80;;
52320;SDS011;38261;54.090;13.382;2023-09-08T05:51:04;16.77;;;11.60;;
52320;SDS011;38261;54.090;13.382;2023-09-08T05:52:28;16.40;;;10.93;;
52320;SDS011;38261;54.090;13.382;2023-09-08T05:53:50;19.50;;;12.40;;
52320;SDS011;38261;54.090;13.382;2023-09-08T05:55:12;19.13;;;12.50;;
52320;SDS011;38261;54.090;13.382;2023-09-08T05:56:36;17.37;;;12.10;;
52320;SDS011;38261;54.090;13.382;2023-09-08T05:57:59;14.13;;;11.70;;
52320;SDS011;38261;54.090;13.382;2023-09-08T05:59:21;18.80;;;12.53;;
52320;SDS011;38261;54.090;13.382;2023-09-08T06:00:43;18.00;;;12.80;;
52320;SDS011;38261;54.090;13.382;2023-09-08T06:02:05;17.53;;;13.10;;
52320;SDS011;38261;54.090;13.382;2023-09-08T06:03:28;17.63;;;12.60;;
52320;SDS011;38261;54.090;13.382;2023-09-08T06:04:50;20.53;;;12.37;;
52320;SDS011;38261;54.090;13.382;2023-09-08T06:06:12;17.40;;;13.30;;
52320;SDS011;38261;54.090;13.382;2023-09-08T06:07:35;18.63;;;13.20;;
52320;SDS011;38261;54.090;13.382;2023-09-08T06:08:59;16.70;;;13.53;;
52320;SDS011;38261;54.090;13.382;2023-09-08T06:10:21;18.03;;;13.27;;
52320;SDS011;38261;54.090;13.382;2023-09-08T06:11:43;16.43;;;13.60;;
52320;SDS011;38261;54.090;13.382;2023-09-08T06:13:05;17.10;;;13.30;;
52320;SDS011;38261;54.090;13.382;2023-09-08T06:14:29;20.17;;;12.87;;
52320;SDS011;38261;54.090;13.382;2023-09-08T06:15:51;26.17;;;14.10;;
52320;SDS011;38261;54.090;13.382;2023-09-08T06:17:13;19.57;;;14.40;;
52320;SDS011;38261;54.090;13.382;2023-09-08T06:18:35;17.67;;;13.10;;
52320;SDS011;38261;54.090;13.382;2023-09-08T06:20:02;18.33;;;13.40;;
52320;SDS011;38261;54.090;13.382;2023-09-08T06:21:24;19.80;;;13.27;;
52320;SDS011;38261;54.090;13.382;2023-09-08T06:22:46;17.60;;;12.70;;
52320;SDS011;38261;54.090;13.382;2023-09-08T06:24:09;17.73;;;12.30;;
52320;SDS011;38261;54.090;13.382;2023-09-08T06:25:31;21.40;;;13.57;;
52320;SDS011;38261;54.090;13.382;2023-09-08T06:26:53;18.30;;;13.27;;
52320;SDS011;38261;54.090;13.382;2023-09-08T06:28:15;21.47;;;12.90;;
52320;SDS011;38261;54.090;13.382;2023-09-08T06:29:37;22.63;;;12.90;;
52320;SDS011;38261;54.090;13.382;2023-09-08T06:31:01;18.80;;;13.53;;
52320;SDS011;38261;54.090;13.382;2023-09-08T06:32:23;16.03;;;12.20;;
52320;SDS011;38261;54.090;13.382;2023-09-08T06:33:45;18.53;;;12.80;;
52320;SDS011;38261;54.090;13.382;2023-09-08T06:35:08;21.73;;;12.80;;
52320;SDS011;38261;54.090;13.382;2023-09-08T06:36:31;21.30;;;13.33;;
52320;SDS011;38261;54.090;13.382;2023-09-08T06:37:53;16.33;;;12.93;;
52320;SDS011;38261;54.090;13.382;2023-09-08T06:39:15;15.83;;;12.60;;
52320;SDS011;38261;54.090;13.382;2023-09-08T06:40:38;17.60;;;11.97;;
52320;SDS011;38261;54.090;13.382;2023-09-08T06:42:00;15.77;;;12.30;;
52320;SDS011;38261;54.090;13.382;2023-09-08T06:43:22;15.40;;;12.30;;
52320;SDS011;38261;54.090;13.382;2023-09-08T06:44:44;18.60;;;12.97;;
52320;SDS011;38261;54.090;13.382;2023-09-08T06:46:06;16.33;;;11.77;;
52320;SDS011;38261;54.090;13.382;2023-09-08T06:47:29;16.43;;;11.90;;
52320;SDS011;38261;54.090;13.382;2023-09-08T06:48:51;13.77;;;11.40;;
52320;SDS011;38261;54.090;13.382;2023-09-08T06:50:13;16.40;;;12.17;;
52320;SDS011;38261;54.090;13.382;2023-09-08T06:51:35;15.37;;;10.60;;
52320;SDS011;38261;54.090;13.382;2023-09-08T06:52:58;19.93;;;12.20;;
52320;SDS011;38261;54.090;13.382;2023-09-08T06:54:22;17.73;;;11.97;;
52320;SDS011;38261;54.090;13.382;2023-09-08T06:55:44;14.83;;;10.97;;
52320;SDS011;38261;54.090;13.382;2023-09-08T06:57:06;16.27;;;11.27;;
52320;SDS011;38261;54.090;13.382;2023-09-08T06:58:28;16.63;;;12.30;;
52320;SDS011;38261;54.090;13.382;2023-09-08T06:59:50;16.00;;;11.47;;
52320;SDS011;38261;54.090;13.382;2023-09-08T07:01:13;12.57;;;10.77;;
52320;SDS011;38261;54.090;13.382;2023-09-08T07:02:35;14.73;;;11.83;;
52320;SDS011;38261;54.090;13.382;2023-09-08T07:03:57;14.00;;;10.43;;
52320;SDS011;38261;54.090;13.382;2023-09-08T07:05:20;17.87;;;11.13;;
52320;SDS011;38261;54.090;13.382;2023-09-08T07:06:42;14.63;;;10.83;;
52320;SDS011;38261;54.090;13.382;2023-09-08T07:08:06;12.93;;;10.77;;
52320;SDS011;38261;54.090;13.382;2023-09-08T07:09:28;13.23;;;10.67;;
52320;SDS011;38261;54.090;13.382;2023-09-08T07:10:53;20.43;;;11.17;;
52320;SDS011;38261;54.090;13.382;2023-09-08T07:12:16;13.90;;;10.53;;
52320;SDS011;38261;54.090;13.382;2023-09-08T07:13:38;13.90;;;11.10;;
52320;SDS011;38261;54.090;13.382;2023-09-08T07:15:00;16.10;;;10.07;;
52320;SDS011;38261;54.090;13.382;2023-09-08T07:16:22;14.83;;;10.63;;
52320;SDS011;38261;54.090;13.382;2023-09-08T07:17:45;12.83;;;10.20;;
52320;SDS011;38261;54.090;13.382;2023-09-08T07:19:07;12.87;;;10.23;;
52320;SDS011;38261;54.090;13.382;2023-09-08T07:20:29;13.00;;;9.67;;
52320;SDS011;38261;54.090;13.382;2023-09-08T07:21:51;11.67;;;9.27;;
52320;SDS011;38261;54.090;13.382;2023-09-08T07:23:13;14.30;;;9.77;;
52320;SDS011;38261;54.090;13.382;2023-09-08T07:24:36;11.80;;;10.00;;
52320;SDS011;38261;54.090;13.382;2023-09-08T07:25:58;13.57;;;10.20;;
52320;SDS011;38261;54.090;13.382;2023-09-08T07:27:20;12.80;;;10.10;;
52320;SDS011;38261;54.090;13.382;2023-09-08T07:28:42;14.53;;;10.10;;
52320;SDS011;38261;54.090;13.382;2023-09-08T07:30:04;12.47;;;9.50;;
52320;SDS011;38261;54.090;13.382;2023-09-08T07:31:27;12.17;;;9.60;;
52320;SDS011;38261;54.090;13.382;2023-09-08T07:32:50;14.03;;;9.20;;
52320;SDS011;38261;54.090;13.382;2023-09-08T07:34:12;12.03;;;9.53;;
52320;SDS011;38261;54.090;13.382;2023-09-08T07:35:40;15.83;;;9.90;;
52320;SDS011;38261;54.090;13.382;2023-09-08T07:37:02;12.07;;;8.73;;
52320;SDS011;38261;54.090;13.382;2023-09-08T07:38:24;11.90;;;9.20;;
52320;SDS011;38261;54.090;13.382;2023-09-08T07:39:47;9.33;;;7.97;;
52320;SDS011;38261;54.090;13.382;2023-09-08T07:41:09;12.60;;;8.50;;
52320;SDS011;38261;54.090;13.382;2023-09-08T07:42:31;11.07;;;8.83;;
52320;SDS011;38261;54.090;13.382;2023-09-08T07:43:53;15.47;;;9.43;;
52320;SDS011;38261;54.090;13.382;2023-09-08T07:45:15;14.40;;;9.77;;
52320;SDS011;38261;54.090;13.382;2023-09-08T07:46:37;17.80;;;9.83;;
52320;SDS011;38261;54.090;13.382;2023-09-08T07:48:00;10.57;;;8.30;;
52320;SDS011;38261;54.090;13.382;2023-09-08T07:49:23;10.47;;;8.50;;
52320;SDS011;38261;54.090;13.382;2023-09-08T07:50:45;10.60;;;7.57;;
52320;SDS011;38261;54.090;13.382;2023-09-08T07:52:07;10.27;;;8.00;;
52320;SDS011;38261;54.090;13.382;2023-09-08T07:53:30;8.83;;;7.37;;
52320;SDS011;38261;54.090;13.382;2023-09-08T07:54:52;11.73;;;7.93;;
52320;SDS011;38261;54.090;13.382;2023-09-08T07:56:14;8.57;;;7.30;;
52320;SDS011;38261;54.090;13.382;2023-09-08T07:57:36;12.53;;;8.67;;
52320;SDS011;38261;54.090;13.382;2023-09-08T07:58:59;7.90;;;7.00;;
52320;SDS011;38261;54.090;13.382;2023-09-08T08:00:21;8.97;;;6.67;;
52320;SDS011;38261;54.090;13.382;2023-09-08T08:01:43;11.27;;;6.80;;